createdAt,value
2022-08-19T00:01:52.984Z,16.29
2022-08-19T00:04:22.700Z,16.28
2022-08-19T00:06:50.949Z,16.27
2022-08-19T00:09:21.042Z,16.21
2022-08-19T00:11:52.077Z,16.23
2022-08-19T00:14:21.604Z,16.23
2022-08-19T00:16:50.397Z,16.16
2022-08-19T00:19:18.625Z,16.12
2022-08-19T00:21:46.769Z,16.13
2022-08-19T00:24:17.187Z,16.07
2022-08-19T00:26:46.459Z,16.06
2022-08-19T00:29:18.802Z,16.05
2022-08-19T00:31:47.919Z,16.04
2022-08-19T00:34:19.366Z,16.00
2022-08-19T00:36:47.919Z,16.00
2022-08-19T00:39:17.705Z,15.99
2022-08-19T00:41:48.724Z,16.00
2022-08-19T00:44:22.693Z,15.97
2022-08-19T00:46:58.094Z,16.00
2022-08-19T00:49:31.956Z,15.97
2022-08-19T00:52:04.014Z,15.91
2022-08-19T00:54:34.246Z,15.90
2022-08-19T00:57:04.155Z,15.87
2022-08-19T01:00:00.751Z,15.88
2022-08-19T01:02:22.351Z,15.87
2022-08-19T01:04:50.598Z,15.87
2022-08-19T01:07:19.890Z,15.86
2022-08-19T01:09:48.904Z,15.83
2022-08-19T01:12:18.096Z,15.83
2022-08-19T01:14:48.988Z,15.85
2022-08-19T01:17:18.319Z,15.84
2022-08-19T01:19:48.952Z,15.83
2022-08-19T01:22:30.063Z,15.80
2022-08-19T01:25:01.257Z,15.80
2022-08-19T01:27:42.957Z,15.83
2022-08-19T01:30:16.126Z,15.80
2022-08-19T01:32:44.561Z,15.78
2022-08-19T01:35:14.806Z,15.78
2022-08-19T01:37:48.705Z,15.76
2022-08-19T01:40:20.486Z,15.75
2022-08-19T01:42:49.525Z,15.74
2022-08-19T01:45:17.873Z,15.76
2022-08-19T01:47:51.724Z,15.73
2022-08-19T01:50:31.577Z,15.71
2022-08-19T01:53:02.286Z,15.73
2022-08-19T01:55:40.884Z,15.71
2022-08-19T01:58:13.982Z,15.70
2022-08-19T02:00:42.377Z,15.69
2022-08-19T02:03:12.468Z,15.64
2022-08-19T02:05:41.533Z,15.65
2022-08-19T02:08:10.856Z,15.64
2022-08-19T02:10:44.882Z,15.66
2022-08-19T02:13:14.435Z,15.65
2022-08-19T02:15:43.221Z,15.63
2022-08-19T02:18:11.749Z,15.67
2022-08-19T02:20:41.345Z,15.69
2022-08-19T02:23:13.559Z,15.64
2022-08-19T02:25:48.059Z,15.63
2022-08-19T02:28:18.912Z,15.64
2022-08-19T02:30:48.945Z,15.60
2022-08-19T02:33:18.455Z,15.57
2022-08-19T02:35:48.001Z,15.55
2022-08-19T02:38:29.010Z,15.50
2022-08-19T02:41:00.663Z,15.46
2022-08-19T02:43:33.855Z,15.48
2022-08-19T02:46:03.366Z,15.45
2022-08-19T02:48:34.018Z,15.44
2022-08-19T02:51:02.402Z,15.42
2022-08-19T02:53:30.859Z,15.39
2022-08-19T02:56:00.725Z,15.39
2022-08-19T02:58:29.011Z,15.41
2022-08-19T03:00:58.650Z,15.38
2022-08-19T03:03:27.772Z,15.40
2022-08-19T03:06:06.113Z,15.37
2022-08-19T03:08:34.394Z,15.37
2022-08-19T03:11:04.430Z,15.33
2022-08-19T03:13:32.707Z,15.34
2022-08-19T03:16:00.845Z,15.34
2022-08-19T03:18:28.999Z,15.34
2022-08-19T03:20:57.182Z,15.34
2022-08-19T03:23:25.754Z,15.32
2022-08-19T03:26:15.522Z,15.31
2022-08-19T03:28:49.483Z,15.26
2022-08-19T03:31:45.110Z,15.25
2022-08-19T03:34:12.381Z,15.24
2022-08-19T03:36:41.274Z,15.24
2022-08-19T03:39:09.583Z,15.22
2022-08-19T03:41:45.132Z,15.21
2022-08-19T03:44:17.964Z,15.21
2022-08-19T03:46:48.337Z,15.19
2022-08-19T03:49:18.269Z,15.17
2022-08-19T03:51:48.582Z,15.15
2022-08-19T03:54:20.279Z,15.09
2022-08-19T03:56:49.253Z,15.06
2022-08-19T03:59:22.298Z,15.06
2022-08-19T04:01:50.667Z,15.09
2022-08-19T04:04:20.046Z,15.10
2022-08-19T04:06:49.003Z,15.09
2022-08-19T04:09:17.723Z,15.11
2022-08-19T04:11:48.140Z,15.11
2022-08-19T04:14:20.756Z,15.08
2022-08-19T04:16:50.550Z,15.09
2022-08-19T04:19:20.396Z,15.11
2022-08-19T04:21:51.310Z,15.08
2022-08-19T04:24:20.187Z,15.06
2022-08-19T04:26:49.245Z,15.04
2022-08-19T04:29:22.313Z,15.03
2022-08-19T04:31:51.207Z,15.02
2022-08-19T04:34:23.621Z,15.00
2022-08-19T04:36:53.398Z,15.00
2022-08-19T04:39:23.702Z,15.01
2022-08-19T04:42:09.072Z,14.99
2022-08-19T04:44:39.896Z,14.98
2022-08-19T04:47:14.749Z,14.95
2022-08-19T04:49:42.924Z,14.97
2022-08-19T04:52:11.177Z,14.94
2022-08-19T04:54:40.099Z,14.95
2022-08-19T04:57:11.112Z,14.97
2022-08-19T04:59:41.531Z,14.96
2022-08-19T05:02:11.522Z,14.96
2022-08-19T05:04:40.530Z,14.99
2022-08-19T05:07:09.521Z,15.02
2022-08-19T05:09:57.175Z,15.03
2022-08-19T05:12:29.367Z,14.99
2022-08-19T05:14:59.833Z,15.01
2022-08-19T05:17:31.284Z,14.99
2022-08-19T05:20:20.621Z,14.98
2022-08-19T05:22:49.717Z,14.94
2022-08-19T05:25:21.449Z,14.97
2022-08-19T05:27:50.339Z,14.97
2022-08-19T05:30:33.379Z,14.95
2022-08-19T05:33:10.467Z,14.93
2022-08-19T05:35:39.663Z,14.94
2022-08-19T05:38:08.294Z,14.89
2022-08-19T05:40:37.099Z,14.90
2022-08-19T05:43:06.425Z,14.95
2022-08-19T05:45:41.062Z,14.97
2022-08-19T05:48:12.116Z,14.98
2022-08-19T05:50:40.991Z,14.99
2022-08-19T05:53:10.531Z,14.98
2022-08-19T05:55:40.564Z,14.99
2022-08-19T05:58:09.362Z,14.98
2022-08-19T06:00:39.664Z,15.02
2022-08-19T06:03:12.403Z,15.05
2022-08-19T06:05:49.768Z,15.05
2022-08-19T06:08:34.110Z,15.09
2022-08-19T06:11:16.440Z,15.15
2022-08-19T06:13:44.559Z,15.16
2022-08-19T06:16:14.096Z,15.19
2022-08-19T06:18:42.318Z,15.22
2022-08-19T06:21:10.555Z,15.29
2022-08-19T06:23:38.834Z,15.33
2022-08-19T06:26:07.237Z,15.40
2022-08-19T06:28:35.535Z,15.49
2022-08-19T06:31:08.874Z,15.53
2022-08-19T06:33:38.546Z,15.62
2022-08-19T06:36:07.452Z,15.71
2022-08-19T06:38:35.637Z,15.73
2022-08-19T06:41:07.612Z,15.74
2022-08-19T06:43:36.923Z,15.77
2022-08-19T06:46:13.203Z,15.76
2022-08-19T06:48:45.758Z,15.75
2022-08-19T06:51:16.654Z,15.75
2022-08-19T06:53:48.210Z,15.71
2022-08-19T06:56:18.214Z,15.70
2022-08-19T06:58:47.572Z,15.72
2022-08-19T07:01:15.839Z,15.75
2022-08-19T07:03:45.495Z,15.80
2022-08-19T07:06:43.144Z,15.84
2022-08-19T07:09:07.703Z,15.86
2022-08-19T07:11:36.160Z,15.86
2022-08-19T07:14:05.263Z,15.88
2022-08-19T07:16:33.432Z,15.95
2022-08-19T07:19:11.836Z,16.04
2022-08-19T07:21:44.730Z,16.36
2022-08-19T07:24:13.341Z,16.60
2022-08-19T07:26:44.349Z,16.67
2022-08-19T07:29:13.753Z,16.71
2022-08-19T07:31:43.650Z,16.71
2022-08-19T07:34:16.080Z,16.68
2022-08-19T07:36:46.748Z,16.71
2022-08-19T07:39:16.649Z,16.74
2022-08-19T07:41:45.289Z,16.84
2022-08-19T07:44:15.290Z,16.93
2022-08-19T07:46:48.315Z,16.95
2022-08-19T07:49:20.533Z,16.94
2022-08-19T07:51:50.705Z,16.94
2022-08-19T07:54:20.163Z,16.90
2022-08-19T07:56:48.656Z,16.86
2022-08-19T07:59:21.540Z,16.82
2022-08-19T08:01:51.223Z,16.79
2022-08-19T08:04:38.466Z,16.80
2022-08-19T08:07:25.893Z,16.94
2022-08-19T08:10:03.104Z,17.05
2022-08-19T08:12:35.378Z,17.10
2022-08-19T08:15:12.709Z,17.22
2022-08-19T08:17:49.491Z,17.31
2022-08-19T08:20:22.145Z,17.42
2022-08-19T08:23:08.207Z,17.61
2022-08-19T08:25:37.598Z,17.71
2022-08-19T08:28:06.366Z,17.73
2022-08-19T08:30:36.981Z,17.79
2022-08-19T08:33:05.784Z,17.78
2022-08-19T08:35:35.727Z,17.70
2022-08-19T08:38:04.799Z,17.71
2022-08-19T08:40:42.278Z,17.67
2022-08-19T08:43:22.436Z,17.78
2022-08-19T08:45:57.763Z,17.82
2022-08-19T08:48:35.143Z,17.98
2022-08-19T08:51:07.253Z,18.06
2022-08-19T08:53:42.101Z,18.03
2022-08-19T08:56:17.072Z,18.00
2022-08-19T08:58:56.681Z,18.02
2022-08-19T09:01:25.213Z,17.98
2022-08-19T09:04:02.719Z,17.89
2022-08-19T09:06:41.508Z,17.93
2022-08-19T09:09:17.935Z,17.86
2022-08-19T09:12:03.153Z,17.84
2022-08-19T09:14:51.507Z,17.91
2022-08-19T09:17:29.245Z,18.08
2022-08-19T09:20:00.147Z,18.23
2022-08-19T09:22:31.720Z,18.43
2022-08-19T09:24:59.914Z,18.52
2022-08-19T09:27:42.946Z,18.57
2022-08-19T09:30:16.785Z,18.67
2022-08-19T09:32:45.660Z,18.85
2022-08-19T09:35:15.526Z,19.06
2022-08-19T09:37:45.497Z,19.24
2022-08-19T09:40:15.455Z,19.31
2022-08-19T09:42:50.042Z,19.51
2022-08-19T09:45:22.900Z,19.58
2022-08-19T09:47:53.877Z,19.54
2022-08-19T09:50:23.108Z,19.40
2022-08-19T09:52:57.511Z,19.38
2022-08-19T09:55:31.246Z,19.52
2022-08-19T09:58:01.850Z,19.57
2022-08-19T10:00:31.301Z,19.76
2022-08-19T10:02:59.498Z,19.82
2022-08-19T10:05:45.090Z,19.74
2022-08-19T10:08:20.787Z,19.61
2022-08-19T10:10:50.003Z,19.52
2022-08-19T10:13:24.622Z,19.52
2022-08-19T10:15:53.757Z,19.50
2022-08-19T10:18:26.561Z,19.41
2022-08-19T10:21:04.662Z,19.33
2022-08-19T10:23:34.263Z,19.24
2022-08-19T10:26:04.401Z,19.21
2022-08-19T10:28:32.548Z,19.26
2022-08-19T10:31:01.037Z,19.27
2022-08-19T10:33:39.237Z,19.18
2022-08-19T10:36:21.198Z,18.94
2022-08-19T10:38:56.670Z,18.82
2022-08-19T10:41:28.450Z,18.87
2022-08-19T10:43:57.620Z,18.85
2022-08-19T10:46:33.550Z,18.89
2022-08-19T10:49:02.682Z,18.92
2022-08-19T10:51:57.119Z,18.94
2022-08-19T10:54:49.531Z,18.93
2022-08-19T10:57:17.078Z,18.94
2022-08-19T10:59:45.444Z,19.00
2022-08-19T11:02:14.319Z,19.03
2022-08-19T11:04:43.144Z,19.00
2022-08-19T11:07:12.849Z,18.98
2022-08-19T11:09:44.265Z,19.03
2022-08-19T11:12:13.768Z,18.92
2022-08-19T11:14:42.274Z,18.79
2022-08-19T11:17:12.119Z,18.74
2022-08-19T11:19:40.267Z,18.79
2022-08-19T11:22:10.470Z,19.01
2022-08-19T11:24:44.276Z,19.34
2022-08-19T11:27:12.555Z,19.69
2022-08-19T11:29:41.686Z,19.95
2022-08-19T11:32:11.880Z,20.20
2022-08-19T11:34:40.206Z,20.35
2022-08-19T11:37:09.646Z,20.41
2022-08-19T11:39:39.030Z,20.61
2022-08-19T11:42:23.429Z,20.80
2022-08-19T11:44:51.737Z,21.01
2022-08-19T11:47:20.934Z,21.17
2022-08-19T11:49:49.401Z,21.18
2022-08-19T11:52:17.637Z,21.32
2022-08-19T11:54:45.690Z,21.51
2022-08-19T11:57:17.845Z,21.65
2022-08-19T11:59:50.775Z,21.74
2022-08-19T12:02:20.171Z,21.98
2022-08-19T12:04:48.477Z,22.17
2022-08-19T12:07:16.757Z,22.10
2022-08-19T12:09:45.053Z,21.92
2022-08-19T12:12:15.566Z,21.61
2022-08-19T12:14:43.821Z,21.38
2022-08-19T12:17:12.499Z,21.33
2022-08-19T12:19:42.070Z,21.47
2022-08-19T12:22:10.261Z,21.61
2022-08-19T12:24:38.438Z,21.72
2022-08-19T12:27:09.994Z,21.99
2022-08-19T12:29:42.600Z,22.25
2022-08-19T12:32:12.728Z,22.07
2022-08-19T12:34:41.587Z,21.94
2022-08-19T12:37:10.480Z,21.85
2022-08-19T12:39:42.275Z,21.64
2022-08-19T12:42:10.710Z,21.35
2022-08-19T12:44:41.531Z,21.15
2022-08-19T12:47:15.403Z,20.98
2022-08-19T12:49:53.921Z,20.87
2022-08-19T12:52:24.714Z,20.83
2022-08-19T12:54:55.544Z,20.78
2022-08-19T12:57:31.658Z,20.72
2022-08-19T13:00:04.730Z,20.64
2022-08-19T13:02:38.621Z,20.61
2022-08-19T13:05:09.383Z,20.57
2022-08-19T13:07:38.291Z,20.52
2022-08-19T13:10:08.121Z,20.55
2022-08-19T13:12:36.572Z,20.60
2022-08-19T13:15:10.638Z,20.68
2022-08-19T13:17:42.176Z,20.73
2022-08-19T13:20:12.513Z,20.79
2022-08-19T13:22:40.780Z,20.83
2022-08-19T13:25:10.579Z,20.78
2022-08-19T13:27:40.005Z,20.70
2022-08-19T13:30:43.856Z,20.62
2022-08-19T13:33:15.999Z,20.63
2022-08-19T13:35:50.131Z,20.78
2022-08-19T13:38:21.585Z,21.04
2022-08-19T13:40:50.700Z,21.28
2022-08-19T13:43:23.011Z,21.42
2022-08-19T13:45:57.726Z,21.42
2022-08-19T13:48:28.585Z,21.54
2022-08-19T13:50:57.213Z,21.69
2022-08-19T13:53:25.704Z,21.83
2022-08-19T13:55:54.728Z,21.79
2022-08-19T13:58:23.680Z,21.69
2022-08-19T14:00:51.886Z,21.49
2022-08-19T14:03:20.185Z,21.41
2022-08-19T14:05:49.957Z,21.32
2022-08-19T14:08:19.350Z,21.25
2022-08-19T14:10:48.289Z,21.21
2022-08-19T14:13:18.365Z,21.18
2022-08-19T14:15:48.278Z,21.23
2022-08-19T14:18:18.076Z,21.18
2022-08-19T14:20:47.026Z,21.10
2022-08-19T14:23:16.653Z,21.05
2022-08-19T14:25:45.625Z,21.11
2022-08-19T14:28:13.777Z,21.14
2022-08-19T14:30:41.970Z,21.21
2022-08-19T14:33:10.984Z,21.21
2022-08-19T14:35:39.755Z,21.17
2022-08-19T14:38:17.344Z,21.16
2022-08-19T14:40:47.586Z,21.07
2022-08-19T14:43:15.694Z,20.93
2022-08-19T14:45:46.459Z,20.87
2022-08-19T14:48:18.977Z,20.71
2022-08-19T14:50:47.983Z,20.54
2022-08-19T14:53:18.806Z,20.52
2022-08-19T14:55:49.067Z,20.57
2022-08-19T14:58:29.870Z,20.55
2022-08-19T15:00:59.937Z,20.44
2022-08-19T15:03:28.351Z,20.38
2022-08-19T15:05:58.706Z,20.25
2022-08-19T15:08:28.185Z,20.25
2022-08-19T15:10:58.979Z,20.40
2022-08-19T15:13:29.035Z,20.49
2022-08-19T15:15:58.139Z,20.52
2022-08-19T15:18:26.978Z,20.67
2022-08-19T15:20:56.072Z,20.77
2022-08-19T15:23:24.609Z,20.73
2022-08-19T15:25:56.701Z,20.72
2022-08-19T15:28:27.764Z,20.67
2022-08-19T15:30:56.609Z,20.65
2022-08-19T15:33:25.120Z,20.62
2022-08-19T15:35:54.181Z,20.68
2022-08-19T15:38:24.594Z,20.79
2022-08-19T15:40:53.227Z,20.93
2022-08-19T15:43:23.527Z,21.06
2022-08-19T15:45:53.071Z,21.12
2022-08-19T15:48:21.184Z,21.23
2022-08-19T15:50:49.485Z,21.23
2022-08-19T15:53:17.795Z,21.15
2022-08-19T15:55:48.668Z,21.09
2022-08-19T15:58:35.138Z,21.00
2022-08-19T16:01:24.390Z,20.97
2022-08-19T16:04:14.994Z,20.89
2022-08-19T16:06:46.048Z,21.02
2022-08-19T16:09:15.472Z,21.00
2022-08-19T16:11:46.408Z,20.78
2022-08-19T16:14:16.945Z,20.72
2022-08-19T16:16:48.158Z,20.56
2022-08-19T16:19:19.984Z,20.55
2022-08-19T16:21:52.593Z,20.53
2022-08-19T16:24:22.420Z,20.54
2022-08-19T16:26:50.853Z,20.55
2022-08-19T16:29:34.819Z,20.56
2022-08-19T16:32:11.655Z,20.47
2022-08-19T16:34:41.542Z,20.36
2022-08-19T16:37:10.766Z,20.34
2022-08-19T16:39:39.366Z,20.28
2022-08-19T16:42:09.829Z,20.28
2022-08-19T16:44:39.562Z,20.26
2022-08-19T16:47:09.624Z,20.15
2022-08-19T16:49:53.590Z,20.07
2022-08-19T16:52:27.256Z,20.02
2022-08-19T16:54:55.777Z,19.99
2022-08-19T16:57:25.071Z,20.00
2022-08-19T16:59:53.608Z,19.96
2022-08-19T17:02:25.506Z,19.97
2022-08-19T17:04:57.344Z,19.97
2022-08-19T17:07:27.697Z,19.89
2022-08-19T17:09:55.993Z,19.88
2022-08-19T17:12:30.338Z,19.90
2022-08-19T17:15:02.644Z,19.95
2022-08-19T17:17:33.077Z,19.96
2022-08-19T17:20:02.685Z,20.01
2022-08-19T17:22:30.997Z,19.99
2022-08-19T17:24:59.135Z,19.97
2022-08-19T17:27:32.466Z,19.88
2022-08-19T17:30:02.586Z,19.86
2022-08-19T17:32:35.764Z,19.80
2022-08-19T17:35:04.925Z,19.78
2022-08-19T17:37:33.279Z,19.72
2022-08-19T17:40:03.027Z,19.68
2022-08-19T17:42:32.144Z,19.65
2022-08-19T17:45:00.767Z,19.57
2022-08-19T17:47:29.591Z,19.56
2022-08-19T17:49:59.670Z,19.53
2022-08-19T17:52:28.100Z,19.53
2022-08-19T17:54:56.538Z,19.54
2022-08-19T17:57:24.855Z,19.57
2022-08-19T17:59:53.597Z,19.56
2022-08-19T18:02:22.504Z,19.50
2022-08-19T18:04:50.773Z,19.45
2022-08-19T18:07:21.767Z,19.44
2022-08-19T18:09:54.127Z,19.37
2022-08-19T18:12:26.660Z,19.32
2022-08-19T18:14:55.201Z,19.32
2022-08-19T18:17:24.628Z,19.35
2022-08-19T18:19:52.878Z,19.36
2022-08-19T18:22:27.907Z,19.36
2022-08-19T18:24:57.215Z,19.30
2022-08-19T18:27:26.368Z,19.23
2022-08-19T18:29:59.792Z,19.19
2022-08-19T18:32:31.764Z,19.20
2022-08-19T18:35:01.489Z,19.08
2022-08-19T18:37:32.328Z,19.06
2022-08-19T18:40:17.739Z,18.99
2022-08-19T18:43:04.904Z,18.93
2022-08-19T18:45:51.095Z,18.94
2022-08-19T18:48:36.737Z,18.97
2022-08-19T18:51:05.962Z,18.97
2022-08-19T18:53:38.473Z,18.95
2022-08-19T18:56:08.373Z,18.87
2022-08-19T18:58:39.008Z,18.82
2022-08-19T19:01:11.838Z,18.81
2022-08-19T19:03:45.390Z,18.78
2022-08-19T19:06:14.382Z,18.78
2022-08-19T19:08:45.110Z,18.72
2022-08-19T19:11:13.727Z,18.67
2022-08-19T19:13:42.310Z,18.63
2022-08-19T19:16:11.730Z,18.57
2022-08-19T19:18:40.396Z,18.52
2022-08-19T19:21:09.453Z,18.47
2022-08-19T19:23:40.654Z,18.43
2022-08-19T19:26:11.335Z,18.35
2022-08-19T19:28:45.622Z,18.29
2022-08-19T19:31:17.291Z,18.25
2022-08-19T19:33:46.833Z,18.21
2022-08-19T19:36:15.410Z,18.15
2022-08-19T19:38:48.583Z,18.10
2022-08-19T19:41:23.781Z,18.06
2022-08-19T19:44:10.103Z,18.02
2022-08-19T19:46:42.688Z,17.99
2022-08-19T19:49:12.493Z,17.97
2022-08-19T19:51:41.745Z,17.95
2022-08-19T19:54:14.503Z,17.94
2022-08-19T19:56:45.579Z,17.90
2022-08-19T19:59:14.479Z,17.88
2022-08-19T20:01:46.997Z,17.90
2022-08-19T20:04:16.559Z,17.90
2022-08-19T20:06:45.974Z,17.88
2022-08-19T20:09:19.485Z,17.84
2022-08-19T20:11:53.565Z,17.79
2022-08-19T20:14:24.505Z,17.77
2022-08-19T20:16:53.685Z,17.76
2022-08-19T20:19:26.216Z,17.72
2022-08-19T20:21:57.578Z,17.73
2022-08-19T20:24:28.875Z,17.74
2022-08-19T20:27:01.029Z,17.70
2022-08-19T20:29:39.339Z,17.67
2022-08-19T20:32:09.749Z,17.65
2022-08-19T20:34:38.378Z,17.65
2022-08-19T20:37:09.558Z,17.63
2022-08-19T20:39:37.851Z,17.58
2022-08-19T20:42:08.077Z,17.58
2022-08-19T20:44:38.000Z,17.54
2022-08-19T20:47:06.509Z,17.54
2022-08-19T20:49:35.318Z,17.50
2022-08-19T20:52:05.147Z,17.49
2022-08-19T20:54:34.022Z,17.44
2022-08-19T20:57:03.759Z,17.42
2022-08-19T20:59:33.599Z,17.40
2022-08-19T21:02:01.885Z,17.38
2022-08-19T21:04:30.117Z,17.37
2022-08-19T21:06:58.656Z,17.36
2022-08-19T21:09:26.817Z,17.34
2022-08-19T21:11:55.118Z,17.32
2022-08-19T21:14:24.050Z,17.29
2022-08-19T21:16:54.120Z,17.30
2022-08-19T21:19:24.103Z,17.30
2022-08-19T21:21:52.641Z,17.28
2022-08-19T21:24:21.140Z,17.25
2022-08-19T21:26:54.466Z,17.26
2022-08-19T21:29:22.742Z,17.27
2022-08-19T21:31:51.384Z,17.25
2022-08-19T21:34:21.404Z,17.24
2022-08-19T21:36:49.458Z,17.22
2022-08-19T21:39:18.176Z,17.20
2022-08-19T21:41:46.424Z,17.20
2022-08-19T21:44:14.727Z,17.21
2022-08-19T21:46:42.913Z,17.20
2022-08-19T21:49:11.039Z,17.20
2022-08-19T21:51:40.666Z,17.20
2022-08-19T21:54:08.875Z,17.20
2022-08-19T21:56:42.721Z,17.17
2022-08-19T21:59:10.917Z,17.14
2022-08-19T22:01:39.021Z,17.13
2022-08-19T22:04:07.185Z,17.11
2022-08-19T22:06:35.369Z,17.10
2022-08-19T22:09:05.460Z,17.08
2022-08-19T22:11:33.931Z,17.05
2022-08-19T22:14:03.912Z,16.99
2022-08-19T22:16:32.750Z,16.99
2022-08-19T22:19:00.988Z,17.00
2022-08-19T22:21:35.601Z,16.95
2022-08-19T22:24:10.639Z,16.96
2022-08-19T22:26:38.970Z,16.92
2022-08-19T22:29:07.585Z,16.86
2022-08-19T22:31:37.631Z,16.89
2022-08-19T22:34:07.077Z,16.84
2022-08-19T22:36:35.560Z,16.84
2022-08-19T22:39:05.234Z,16.85
2022-08-19T22:41:34.919Z,16.81
2022-08-19T22:44:04.128Z,16.79
2022-08-19T22:46:33.750Z,16.81
2022-08-19T22:49:01.900Z,16.81
2022-08-19T22:51:47.500Z,16.80
2022-08-19T22:54:16.054Z,16.75
2022-08-19T22:56:45.630Z,16.75
2022-08-19T22:59:13.829Z,16.74
2022-08-19T23:01:42.702Z,16.71
2022-08-19T23:04:11.091Z,16.71
2022-08-19T23:06:42.085Z,16.72
2022-08-19T23:09:11.296Z,16.71
2022-08-19T23:11:48.714Z,16.71
2022-08-19T23:14:18.630Z,16.70
2022-08-19T23:16:50.927Z,16.68
2022-08-19T23:19:20.822Z,16.69
2022-08-19T23:21:49.835Z,16.68
2022-08-19T23:24:18.147Z,16.67
2022-08-19T23:27:01.837Z,16.67
2022-08-19T23:29:48.539Z,16.68
2022-08-19T23:32:17.389Z,16.69
2022-08-19T23:34:46.046Z,16.65
2022-08-19T23:37:14.319Z,16.65
2022-08-19T23:39:43.657Z,16.64
2022-08-19T23:42:15.751Z,16.63
2022-08-19T23:44:51.697Z,16.66
2022-08-19T23:47:21.459Z,16.64
2022-08-19T23:49:50.774Z,16.64
2022-08-19T23:52:18.982Z,16.71
2022-08-19T23:54:47.143Z,16.71
2022-08-19T23:57:16.908Z,16.74
2022-08-19T23:59:46.306Z,16.72
